Time;durP1;ratioP1;P1;durP2;ratioP2;P2;SDS_P1;SDS_P2;PMS_P1;PMS_P2;Temp;Humidity;BMP_temperature;BMP_pressure;BME280_temperature;BME280_humidity;BME280_pressure;Samples;Min_cycle;Max_cycle;Signal;HPM_P1;HPM_P2
2023/10/10 00:01:46;;;;;;;20.00;8.70;;;;;;;12.92;100.00;101409.13;7387243;19;21091;-39
2023/10/10 00:04:19;;;;;;;15.60;7.53;;;;;;;12.88;100.00;101402.03;7364866;19;20515;-39
2023/10/10 00:06:49;;;;;;;15.17;8.20;;;;;;;12.85;100.00;101401.88;7389644;19;20412;-39
2023/10/10 00:09:23;;;;;;;15.80;7.47;;;;;;;12.86;100.00;101395.91;7366585;19;20395;-39
2023/10/10 00:11:57;;;;;;;19.53;7.60;;;;;;;12.76;100.00;101405.84;7387168;19;20415;-39
2023/10/10 00:14:29;;;;;;;18.37;8.97;;;;;;;12.73;100.00;101397.97;7365390;19;20431;-39
2023/10/10 00:16:59;;;;;;;13.57;7.70;;;;;;;12.70;100.00;101392.66;7393047;19;20420;-39
2023/10/10 00:19:37;;;;;;;17.17;7.50;;;;;;;12.67;100.00;101398.56;7374369;19;20434;-39
2023/10/10 00:22:07;;;;;;;12.07;7.00;;;;;;;12.65;100.00;101407.09;7394649;19;20482;-39
2023/10/10 00:24:37;;;;;;;17.10;8.43;;;;;;;12.59;100.00;101409.41;7373632;19;20403;-39
2023/10/10 00:27:12;;;;;;;16.60;8.37;;;;;;;12.57;100.00;101404.19;7395072;19;20412;-39
2023/10/10 00:29:44;;;;;;;16.77;7.83;;;;;;;12.55;100.00;101398.94;7372764;19;20934;-39
2023/10/10 00:32:17;;;;;;;18.83;7.97;;;;;;;12.56;100.00;101402.41;7395187;19;21186;-39
2023/10/10 00:34:47;;;;;;;18.37;7.13;;;;;;;12.47;100.00;101402.00;7373301;19;20418;-39
2023/10/10 00:37:21;;;;;;;14.77;7.60;;;;;;;12.48;100.00;101396.91;7397927;19;20800;-38
2023/10/10 00:39:56;;;;;;;19.93;8.10;;;;;;;12.50;100.00;101400.44;7373901;19;20470;-38
2023/10/10 00:42:41;;;;;;;20.60;7.63;;;;;;;12.53;100.00;101390.22;7396473;19;20823;-39
2023/10/10 00:45:14;;;;;;;20.73;8.63;;;;;;;12.51;100.00;101396.16;7372584;19;20431;-40
2023/10/10 00:47:47;;;;;;;16.43;8.93;;;;;;;12.46;100.00;101398.50;7395920;19;20407;-39
2023/10/10 00:50:25;;;;;;;13.90;7.13;;;;;;;12.43;100.00;101399.25;7372424;19;20442;-39
2023/10/10 00:52:55;;;;;;;14.67;7.13;;;;;;;12.51;100.00;101397.03;7396769;19;20820;-39
2023/10/10 00:55:33;;;;;;;19.10;8.30;;;;;;;12.52;100.00;101390.16;7373056;19;21010;-39
2023/10/10 00:58:05;;;;;;;16.10;7.13;;;;;;;12.51;100.00;101396.16;7395747;19;20479;-40
2023/10/10 01:00:36;;;;;;;34.87;8.87;;;;;;;12.43;100.00;101393.22;7373208;19;20429;-39
2023/10/10 01:03:20;;;;;;;17.53;8.53;;;;;;;12.33;100.00;101391.94;7392581;19;20485;-39
2023/10/10 01:05:55;;;;;;;22.03;9.40;;;;;;;12.28;100.00;101396.00;7373789;19;20434;-38
2023/10/10 01:08:26;;;;;;;20.40;9.70;;;;;;;12.26;100.00;101395.94;7396882;19;20399;-38
2023/10/10 01:11:03;;;;;;;19.30;9.60;;;;;;;12.19;100.00;101419.75;7372043;19;20966;-39
2023/10/10 01:13:35;;;;;;;23.37;11.80;;;;;;;12.18;100.00;101425.75;7397294;19;20455;-40
2023/10/10 01:16:05;;;;;;;23.80;12.83;;;;;;;12.11;100.00;101415.94;7374160;19;20845;-39
2023/10/10 01:18:46;;;;;;;22.30;11.97;;;;;;;12.08;100.00;101411.50;7396497;19;20407;-38
2023/10/10 01:21:23;;;;;;;23.50;12.03;;;;;;;12.01;100.00;101422.34;7373534;19;20422;-39
2023/10/10 01:23:53;;;;;;;21.40;10.87;;;;;;;11.99;100.00;101422.28;7383493;19;20439;-38
2023/10/10 01:26:28;;;;;;;23.43;12.30;;;;;;;11.94;100.00;101439.28;7394431;19;20408;-38
2023/10/10 01:29:12;;;;;;;26.77;12.93;;;;;;;11.86;100.00;101440.63;7374695;19;20407;-39
2023/10/10 01:31:43;;;;;;;22.70;11.80;;;;;;;11.85;100.00;101438.84;7394590;19;20407;-39
2023/10/10 01:34:30;;;;;;;23.10;13.10;;;;;;;11.77;100.00;101453.09;7373053;19;20400;-38
2023/10/10 01:37:07;;;;;;;24.67;12.53;;;;;;;11.73;100.00;101455.53;7398666;19;20410;-39
2023/10/10 01:39:47;;;;;;;24.33;13.57;;;;;;;11.70;100.00;101450.22;7372886;19;20419;-40
2023/10/10 01:42:23;;;;;;;25.70;12.73;;;;;;;11.70;100.00;101446.75;7394785;19;20867;-39
2023/10/10 01:44:54;;;;;;;25.03;13.77;;;;;;;11.63;100.00;101445.56;7372849;19;20950;-39
2023/10/10 01:47:34;;;;;;;26.90;12.70;;;;;;;11.53;100.00;101443.38;7395675;19;20408;-37
2023/10/10 01:50:08;;;;;;;27.10;13.57;;;;;;;11.53;100.00;101461.47;7370922;19;21144;-38
2023/10/10 01:52:45;;;;;;;23.50;12.70;;;;;;;11.53;100.00;101466.63;7392773;19;20395;-38
2023/10/10 01:55:17;;;;;;;23.50;13.00;;;;;;;11.50;100.00;101467.34;7371654;19;20427;-38
2023/10/10 01:57:48;;;;;;;24.00;12.83;;;;;;;11.46;100.00;101453.41;7397585;19;20421;-39
2023/10/10 02:00:25;;;;;;;26.07;13.30;;;;;;;11.51;100.00;101448.44;7370222;19;20444;-38
2023/10/10 02:02:56;;;;;;;25.70;13.87;;;;;;;11.44;100.00;101451.56;7395738;19;20415;-38
2023/10/10 02:05:45;;;;;;;26.00;13.27;;;;;;;11.44;100.00;101457.59;7372238;19;20427;-38
2023/10/10 02:08:22;;;;;;;24.77;12.23;;;;;;;11.44;100.00;101462.75;7395357;19;20475;-39
2023/10/10 02:10:54;;;;;;;24.90;12.93;;;;;;;11.43;100.00;101444.63;7372038;19;20423;-38
2023/10/10 02:13:25;;;;;;;23.70;11.33;;;;;;;11.40;100.00;101450.50;7393759;19;20415;-39
2023/10/10 02:15:55;;;;;;;31.20;14.00;;;;;;;11.31;100.00;101460.38;7372360;19;20499;-38
2023/10/10 02:18:38;;;;;;;31.77;12.90;;;;;;;11.18;100.00;101459.75;7395157;19;20415;-38
2023/10/10 02:21:16;;;;;;;24.90;12.87;;;;;;;11.21;100.00;101470.25;7371587;19;20851;-38
2023/10/10 02:23:53;;;;;;;26.33;12.67;;;;;;;11.19;100.00;101471.84;7395371;19;20443;-40
2023/10/10 02:26:35;;;;;;;26.23;12.77;;;;;;;11.18;100.00;101475.25;7374562;19;20912;-39
2023/10/10 02:31:56;;;;;;;24.03;11.90;;;;;;;11.13;100.00;101468.09;7395777;19;20403;-41
2023/10/10 02:34:30;;;;;;;23.40;12.90;;;;;;;11.14;100.00;101454.38;7371710;19;20399;-39
2023/10/10 02:37:13;;;;;;;22.20;11.77;;;;;;;11.12;100.00;101454.28;7394300;19;20479;-38
2023/10/10 02:39:56;;;;;;;21.00;11.23;;;;;;;11.10;100.00;101457.59;7371022;19;20432;-42
2023/10/10 02:42:26;;;;;;;22.60;12.20;;;;;;;11.13;100.00;101462.94;7393698;19;20763;-38
2023/10/10 02:44:59;;;;;;;23.20;12.47;;;;;;;11.15;100.00;101451.88;7371627;19;20435;-40
2023/10/10 02:47:32;;;;;;;24.63;12.57;;;;;;;11.16;100.00;101448.47;7393751;19;20565;-38
2023/10/10 02:50:13;;;;;;;24.30;11.87;;;;;;;11.08;100.00;101457.53;7368865;19;20973;-39
2023/10/10 02:52:45;;;;;;;23.20;12.97;;;;;;;11.16;100.00;101445.88;7393672;19;20399;-38
2023/10/10 02:55:22;;;;;;;17.73;10.57;;;;;;;11.20;100.00;101444.34;7368650;19;20454;-38
2023/10/10 02:57:53;;;;;;;24.73;12.33;;;;;;;11.20;100.00;101445.25;7396325;19;20433;-41
2023/10/10 03:00:30;;;;;;;23.13;12.20;;;;;;;11.18;100.00;101444.25;7369735;19;20806;-41
2023/10/10 03:03:03;;;;;;;23.00;11.43;;;;;;;11.15;100.00;101446.72;7394561;19;20805;-41
2023/10/10 03:05:43;;;;;;;26.40;13.20;;;;;;;11.09;100.00;101441.22;7370359;19;20422;-38
2023/10/10 03:08:19;;;;;;;18.90;10.80;;;;;;;11.18;100.00;101444.25;7393058;19;20998;-38
2023/10/10 03:11:00;;;;;;;23.40;12.00;;;;;;;11.17;100.00;101447.66;7370039;19;20438;-41
2023/10/10 03:13:35;;;;;;;22.03;11.37;;;;;;;11.15;100.00;101449.28;7393667;19;20449;-42
2023/10/10 03:21:50;;;;;;;18.20;10.67;;;;;;;11.14;100.00;101463.00;7393993;19;20409;-40
2023/10/10 03:24:50;;;;;;;21.23;12.47;;;;;;;11.16;100.00;101466.56;7370092;19;20486;-40
2023/10/10 03:32:59;;;;;;;22.00;12.67;;;;;;;11.13;100.00;101474.13;7393108;19;20407;-41
2023/10/10 03:35:33;;;;;;;22.77;12.97;;;;;;;11.12;100.00;101480.09;7368525;19;20451;-42
2023/10/10 03:38:27;;;;;;;26.80;12.87;;;;;;;11.10;100.00;101476.56;7393832;19;20771;-40
2023/10/10 03:41:25;;;;;;;24.37;12.30;;;;;;;11.18;100.00;101471.81;7369309;19;20419;-40
2023/10/10 05:24:56;;;;;;;35.23;17.77;;;;;;;11.41;100.00;101444.53;7372675;19;20486;-38
2023/10/10 05:27:29;;;;;;;32.90;16.07;;;;;;;11.38;100.00;101451.25;7395931;19;20423;-39
2023/10/10 05:29:59;;;;;;;33.77;15.50;;;;;;;11.40;100.00;101442.75;7372791;19;20423;-40
2023/10/10 05:32:32;;;;;;;35.87;16.20;;;;;;;11.32;100.00;101442.38;7395776;19;20935;-39
2023/10/10 05:35:10;;;;;;;29.00;14.83;;;;;;;11.35;100.00;101451.97;7373118;19;20423;-39
2023/10/10 05:37:43;;;;;;;36.77;16.70;;;;;;;11.34;100.00;101451.06;7396368;19;20399;-39
2023/10/10 05:40:13;;;;;;;33.40;16.37;;;;;;;11.34;100.00;101453.66;7371377;19;21026;-39
2023/10/10 05:42:43;;;;;;;31.60;15.67;;;;;;;11.37;100.00;101454.66;7392255;19;20979;-39
2023/10/10 05:45:13;;;;;;;34.53;16.23;;;;;;;11.37;100.00;101450.34;7366040;19;21010;-41
2023/10/10 05:47:44;;;;;;;29.80;15.63;;;;;;;11.34;100.00;101456.25;7387897;19;20432;-39
2023/10/10 05:50:14;;;;;;;33.57;16.60;;;;;;;11.39;100.00;101448.72;7365653;19;20487;-39
2023/10/10 05:52:46;;;;;;;32.40;14.77;;;;;;;11.44;100.00;101449.84;7390791;19;20410;-39
2023/10/10 05:55:16;;;;;;;31.30;15.40;;;;;;;11.45;100.00;101446.44;7371414;19;20530;-39
2023/10/10 05:57:45;;;;;;;38.17;15.97;;;;;;;11.43;100.00;101440.31;7397273;19;20410;-39
2023/10/10 06:00:16;;;;;;;36.87;16.27;;;;;;;11.44;100.00;101436.91;7370138;19;20513;-40
2023/10/10 06:02:46;;;;;;;42.60;17.50;;;;;;;11.50;100.00;101445.78;7395159;19;20407;-38
2023/10/10 06:05:18;;;;;;;41.93;18.03;;;;;;;11.57;100.00;101442.69;7370491;19;20429;-39
2023/10/10 06:07:50;;;;;;;38.50;17.40;;;;;;;11.52;100.00;101433.81;7396579;19;20763;-40
2023/10/10 06:10:20;;;;;;;42.87;19.00;;;;;;;11.53;100.00;101431.31;7371986;19;20411;-41
2023/10/10 06:12:50;;;;;;;38.03;16.20;;;;;;;11.54;100.00;101432.22;7392771;19;20961;-38
2023/10/10 06:15:20;;;;;;;44.80;19.87;;;;;;;11.55;100.00;101437.47;7369531;19;20431;-39
2023/10/10 06:17:51;;;;;;;39.60;17.07;;;;;;;11.54;100.00;101437.38;7395037;19;20412;-39
2023/10/10 06:20:21;;;;;;;34.57;16.50;;;;;;;11.52;100.00;101433.81;7370039;19;20431;-38
2023/10/10 06:22:55;;;;;;;35.67;16.10;;;;;;;11.52;100.00;101438.97;7394395;19;20419;-38
2023/10/10 06:25:24;;;;;;;38.53;17.50;;;;;;;11.54;100.00;101446.00;7370496;19;20502;-39
2023/10/10 06:27:57;;;;;;;41.30;19.67;;;;;;;11.55;100.00;101439.16;7395093;19;20408;-39
2023/10/10 06:30:26;;;;;;;49.23;19.90;;;;;;;11.55;100.00;101441.72;7370230;19;20998;-41
2023/10/10 06:33:09;;;;;;;44.00;19.33;;;;;;;11.56;100.00;101448.66;7394569;19;20403;-40
2023/10/10 06:35:40;;;;;;;41.47;17.20;;;;;;;11.53;100.00;101440.78;7370410;19;20994;-39
2023/10/10 06:38:12;;;;;;;44.20;17.70;;;;;;;11.49;100.00;101450.09;7393516;19;20408;-39
2023/10/10 06:40:53;;;;;;;47.17;19.37;;;;;;;11.50;100.00;101450.94;7370106;19;20433;-39
2023/10/10 06:43:22;;;;;;;35.20;16.30;;;;;;;11.53;100.00;101451.13;7394009;19;20987;-40
2023/10/10 06:45:55;;;;;;;36.37;16.00;;;;;;;11.57;100.00;101455.59;7370970;19;20492;-41
2023/10/10 06:48:32;;;;;;;40.50;18.57;;;;;;;11.59;100.00;101451.41;7393838;19;20403;-39
2023/10/10 06:51:01;;;;;;;35.17;16.63;;;;;;;11.60;100.00;101453.19;7369646;19;20502;-39
2023/10/10 06:53:36;;;;;;;38.90;17.37;;;;;;;11.62;100.00;101454.13;7393254;19;20426;-42
2023/10/10 06:56:14;;;;;;;44.30;17.57;;;;;;;11.63;100.00;101450.72;7370951;19;20423;-40
2023/10/10 06:58:46;;;;;;;181.87;79.87;;;;;;;11.82;100.00;101446.44;7396006;19;20462;-41
2023/10/10 07:01:19;;;;;;;55.13;20.90;;;;;;;11.79;100.00;101451.50;7370628;19;20511;-42
2023/10/10 07:03:54;;;;;;;49.40;19.10;;;;;;;11.70;100.00;101433.84;7394419;19;20819;-41
2023/10/10 07:06:24;;;;;;;106.77;39.83;;;;;;;11.80;100.00;101440.34;7372296;19;20438;-40
2023/10/10 07:09:14;;;;;;;71.83;30.63;;;;;;;11.88;100.00;101449.31;7373020;19;20491;-41
2023/10/10 07:11:44;;;;;;;78.10;30.73;;;;;;;11.91;100.00;101436.56;7393081;19;20483;-40
2023/10/10 07:14:16;;;;;;;63.27;23.50;;;;;;;11.92;100.00;101443.50;7368331;19;20399;-40
2023/10/10 07:16:46;;;;;;;58.13;21.40;;;;;;;11.85;100.00;101438.84;7392488;19;20404;-38
2023/10/10 07:19:22;;;;;;;55.80;18.67;;;;;;;11.86;100.00;101435.44;7365947;19;20842;-39
2023/10/10 07:21:51;;;;;;;56.03;20.20;;;;;;;11.92;100.00;101443.50;7384491;19;20411;-41
2023/10/10 07:24:28;;;;;;;45.70;18.17;;;;;;;11.96;100.00;101441.94;7361397;19;20807;-43
2023/10/10 07:27:11;;;;;;;46.70;17.43;;;;;;;11.99;100.00;101457.59;7384817;19;20762;-39
2023/10/10 07:32:28;;;;;;;52.33;19.23;;;;;;;12.07;100.00;101455.41;7384935;19;20961;-42
2023/10/10 07:34:58;;;;;;;58.37;18.07;;;;;;;12.00;100.00;101449.91;7364189;19;20425;-40
2023/10/10 07:37:30;;;;;;;51.60;18.07;;;;;;;11.97;100.00;101452.38;7385805;19;20406;-39
2023/10/10 07:40:19;;;;;;;57.47;17.60;;;;;;;12.07;100.00;101447.63;7362575;19;20418;-41
2023/10/10 07:42:57;;;;;;;48.97;18.00;;;;;;;12.01;100.00;101446.50;7381685;19;20471;-43
2023/10/10 07:45:33;;;;;;;55.80;17.87;;;;;;;11.97;100.00;101449.78;7359556;19;20494;-43
2023/10/10 07:51:05;;;;;;;45.73;17.00;;;;;;;12.21;100.00;101449.16;7356117;19;20423;-41
2023/10/10 07:53:44;;;;;;;49.63;19.30;;;;;;;12.28;100.00;101440.88;7379861;19;20420;-45
2023/10/10 07:56:16;;;;;;;55.63;17.37;;;;;;;12.15;100.00;101436.84;7357460;19;20441;-42
2023/10/10 07:58:49;;;;;;;57.53;17.13;;;;;;;12.13;100.00;101440.16;7379403;19;21165;-46
2023/10/10 08:01:23;;;;;;;46.83;16.80;;;;;;;12.20;100.00;101436.19;7358633;19;20443;-41
2023/10/10 08:03:53;;;;;;;56.20;18.20;;;;;;;12.24;100.00;101435.47;7373564;19;21478;-39
2023/10/10 08:06:24;;;;;;;49.50;17.60;;;;;;;12.33;100.00;101437.59;7382203;19;20797;-41
2023/10/10 08:08:56;;;;;;;48.03;18.37;;;;;;;12.40;100.00;101442.22;7372845;19;20428;-39
2023/10/10 08:11:35;;;;;;;51.27;17.83;;;;;;;12.46;100.00;101439.94;7387171;19;20431;-42
2023/10/10 08:14:08;;;;;;;48.50;19.13;;;;;;;12.39;100.00;101446.53;7364758;19;20467;-41
2023/10/10 08:16:40;;;;;;;49.87;20.10;;;;;;;12.37;100.00;101447.28;7387664;19;20415;-40
2023/10/10 08:19:10;;;;;;;75.17;30.67;;;;;;;12.43;100.00;101439.81;7364876;19;20392;-40
2023/10/10 08:21:48;;;;;;;40.50;16.30;;;;;;;12.41;100.00;101436.28;7386484;19;20432;-40
2023/10/10 08:24:19;;;;;;;31.40;13.50;;;;;;;12.42;100.00;101444.09;7364323;19;20410;-39
2023/10/10 08:26:53;;;;;;;28.40;12.30;;;;;;;12.46;100.00;101445.09;7386876;19;20415;-39
2023/10/10 08:29:27;;;;;;;36.50;12.80;;;;;;;12.52;100.00;101423.81;7364383;19;20395;-41
2023/10/10 08:31:56;;;;;;;26.10;11.50;;;;;;;12.54;100.00;101415.28;7386571;19;20403;-40
2023/10/10 08:34:26;;;;;;;26.70;10.77;;;;;;;12.61;100.00;101411.25;7364629;19;20474;-39
2023/10/10 08:37:03;;;;;;;19.13;9.30;;;;;;;12.64;100.00;101407.91;7392206;19;20415;-39
2023/10/10 08:39:35;;;;;;;27.07;9.83;;;;;;;12.68;100.00;101399.47;7371773;19;20394;-39
2023/10/10 08:42:10;;;;;;;23.10;11.10;;;;;;;12.73;100.00;101387.63;7394238;19;20428;-42
2023/10/10 08:44:42;;;;;;;21.17;9.53;;;;;;;12.77;100.00;101373.97;7371342;19;20402;-40
2023/10/10 08:47:16;;;;;;;22.77;10.20;;;;;;;12.76;100.00;101367.03;7393090;19;20878;-39
2023/10/10 08:49:47;;;;;;;26.03;11.03;;;;;;;12.81;100.00;101370.69;7370343;19;20424;-40
2023/10/10 08:52:19;;;;;;;23.80;11.27;;;;;;;12.89;100.00;101367.53;7393347;19;20410;-43
2023/10/10 08:54:51;;;;;;;22.27;9.97;;;;;;;12.97;100.00;101366.16;7371702;19;21050;-40
2023/10/10 08:57:27;;;;;;;19.50;9.67;;;;;;;13.04;100.00;101357.84;7393910;19;20408;-40
2023/10/10 08:59:56;;;;;;;21.23;10.80;;;;;;;13.16;100.00;101356.53;7372672;19;20399;-40
2023/10/10 09:02:33;;;;;;;26.23;10.37;;;;;;;13.18;100.00;101360.09;7398244;19;20427;-40
2023/10/10 09:05:06;;;;;;;21.37;10.07;;;;;;;13.24;100.00;101373.31;7377629;19;20896;-38
2023/10/10 09:07:42;;;;;;;19.97;10.60;;;;;;;13.19;100.00;101370.50;7392247;19;21239;-41
2023/10/10 09:10:16;;;;;;;19.30;9.73;;;;;;;13.29;100.00;101366.63;7372053;19;20423;-39
2023/10/10 09:12:56;;;;;;;19.17;9.57;;;;;;;13.31;100.00;101377.00;7390510;19;20947;-41
2023/10/10 09:15:27;;;;;;;58.47;26.63;;;;;;;13.32;100.00;101384.84;7364792;19;20469;-40
2023/10/10 09:18:14;;;;;;;22.50;13.00;;;;;;;13.40;100.00;101384.28;7389197;19;20426;-40
2023/10/10 09:20:45;;;;;;;23.00;11.80;;;;;;;13.47;100.00;101383.72;7365384;19;20494;-39
2023/10/10 09:23:22;;;;;;;20.17;11.30;;;;;;;13.58;100.00;101390.22;7385190;19;20408;-39
2023/10/10 09:26:09;;;;;;;26.20;11.17;;;;;;;13.55;100.00;101408.28;7361285;19;20498;-42
2023/10/10 09:28:55;;;;;;;21.83;10.73;;;;;;;13.60;100.00;101406.72;7389435;19;20811;-41
2023/10/10 09:31:31;;;;;;;21.47;10.40;;;;;;;13.70;100.00;101407.09;7368445;19;20430;-39
2023/10/10 09:34:03;;;;;;;21.40;11.07;;;;;;;13.78;100.00;101405.69;7365949;19;21148;-40
2023/10/10 09:36:38;;;;;;;18.10;10.17;;;;;;;13.76;100.00;101415.13;7387572;19;20513;-41
2023/10/10 09:39:26;;;;;;;23.87;10.30;;;;;;;13.83;100.00;101418.81;7367179;19;20411;-39
2023/10/10 09:42:06;;;;;;;19.57;9.93;;;;;;;13.90;100.00;101426.91;7385368;19;20428;-39
2023/10/10 09:47:43;;;;;;;29.57;12.40;;;;;;;14.03;100.00;101443.84;7384704;19;20407;-39
2023/10/10 09:52:58;;;;;;;21.10;10.20;;;;;;;14.01;100.00;101431.63;7387383;19;20407;-38
2023/10/10 09:58:28;;;;;;;14.47;8.13;;;;;;;14.22;100.00;101454.03;7388650;19;20439;-39
2023/10/10 10:01:14;;;;;;;13.43;8.43;;;;;;;14.28;100.00;101464.63;7364825;19;20419;-39
2023/10/10 10:03:55;;;;;;;12.87;8.10;;;;;;;14.25;100.00;101472.31;7388528;19;20782;-39
2023/10/10 10:06:51;;;;;;;11.10;7.53;;;;;;;14.20;100.00;101466.06;7366960;19;20457;-39
2023/10/10 10:09:57;;;;;;;14.10;7.63;;;;;;;14.32;100.00;101476.91;7365190;19;20422;-39
2023/10/10 10:12:46;;;;;;;10.53;7.30;;;;;;;14.35;100.00;101492.59;7387891;19;20403;-41
2023/10/10 10:15:28;;;;;;;10.60;6.90;;;;;;;14.37;100.00;101497.84;7363900;19;20518;-40
2023/10/10 10:18:13;;;;;;;12.77;8.00;;;;;;;14.45;100.00;101510.31;7388861;19;20418;-39
2023/10/10 10:20:48;;;;;;;15.10;7.90;;;;;;;14.63;100.00;101517.00;7365088;19;21675;-39
2023/10/10 10:23:26;;;;;;;11.90;6.57;;;;;;;14.66;100.00;101524.91;7386419;19;20399;-39
2023/10/10 10:26:04;;;;;;;11.27;5.60;;;;;;;14.69;100.00;101539.72;7365166;19;20429;-39
2023/10/10 10:28:35;;;;;;;12.40;5.57;;;;;;;14.68;100.00;101558.72;7387614;19;20418;-39
2023/10/10 10:31:07;;;;;;;10.00;5.10;;;;;;;14.73;100.00;101580.56;7364864;19;20427;-40
2023/10/10 10:33:52;;;;;;;6.13;3.57;;;;;;;14.80;100.00;101586.91;7389180;19;20450;-39
2023/10/10 10:36:27;;;;;;;10.93;4.70;;;;;;;14.95;100.00;101608.28;7366100;19;20423;-40
2023/10/10 10:41:51;;;;;;;9.50;3.80;;;;;;;15.05;100.00;101608.59;7385681;19;20395;-39
2023/10/10 10:44:53;;;;;;;5.00;3.30;;;;;;;15.11;100.00;101617.53;7364011;19;20415;-40
2023/10/10 10:47:48;;;;;;;9.07;4.07;;;;;;;15.15;100.00;101623.72;7385892;19;20416;-39
2023/10/10 10:50:43;;;;;;;5.10;3.40;;;;;;;15.21;100.00;101629.13;7364130;19;21223;-39
2023/10/10 10:53:30;;;;;;;6.70;4.00;;;;;;;15.33;100.00;101633.88;7386395;19;20455;-39
2023/10/10 10:59:11;;;;;;;7.90;4.23;;;;;;;15.64;100.00;101627.16;7386146;19;20410;-39
2023/10/10 11:01:42;;;;;;;5.97;3.97;;;;;;;15.86;100.00;101627.03;7363928;19;20427;-40
2023/10/10 11:04:24;;;;;;;5.40;2.90;;;;;;;15.93;100.00;101621.22;7365638;19;20395;-41
2023/10/10 11:07:00;;;;;;;5.43;3.00;;;;;;;15.86;100.00;101640.94;7385331;19;21113;-39
2023/10/10 11:09:34;;;;;;;3.70;2.40;;;;;;;15.89;100.00;101645.34;7364658;19;20435;-42
2023/10/10 11:12:06;;;;;;;5.23;2.57;;;;;;;15.78;100.00;101638.06;7384844;19;20402;-39
2023/10/10 11:14:44;;;;;;;8.63;3.70;;;;;;;16.04;100.00;101638.09;7363307;19;20965;-41
2023/10/10 11:17:20;;;;;;;8.63;3.53;;;;;;;15.95;100.00;101632.59;7384867;19;21427;-40
2023/10/10 11:19:54;;;;;;;7.10;2.60;;;;;;;15.97;100.00;101625.69;7362590;19;20807;-40
2023/10/10 11:22:42;;;;;;;10.43;3.10;;;;;;;16.21;100.00;101622.16;7385129;19;20399;-39
2023/10/10 11:25:20;;;;;;;48.53;23.73;;;;;;;16.11;100.00;101625.28;7363346;19;20506;-40
2023/10/10 11:27:50;;;;;;;13.57;4.87;;;;;;;16.32;100.00;101625.09;7386014;19;20506;-39
2023/10/10 11:30:24;;;;;;;7.27;3.70;;;;;;;16.38;100.00;101622.69;7363127;19;20582;-42
2023/10/10 11:33:16;;;;;;;8.93;4.90;;;;;;;16.27;100.00;101617.13;7384012;19;20451;-40
2023/10/10 11:35:46;;;;;;;9.47;4.93;;;;;;;16.27;100.00;101624.03;7362835;19;20443;-40
2023/10/10 11:38:34;;;;;;;21.73;9.83;;;;;;;16.44;100.00;101625.47;7385806;19;20402;-41
2023/10/10 11:41:08;;;;;;;7.13;4.33;;;;;;;16.61;100.00;101617.28;7360457;19;20469;-43
2023/10/10 11:43:43;;;;;;;8.73;5.40;;;;;;;16.45;100.00;101621.13;7385780;19;20440;-40
2023/10/10 11:46:14;;;;;;;9.20;5.53;;;;;;;16.57;100.00;101628.47;7363665;19;20449;-42
2023/10/10 11:48:45;;;;;;;14.73;7.83;;;;;;;16.41;100.00;101645.31;7385597;19;20438;-40
2023/10/10 11:51:14;;;;;;;8.07;5.20;;;;;;;16.41;100.00;101640.13;7361764;19;20435;-40
2023/10/10 11:53:46;;;;;;;8.33;5.43;;;;;;;16.53;100.00;101644.81;7385133;19;21043;-41
2023/10/10 11:56:17;;;;;;;21.73;8.57;;;;;;;16.76;100.00;101642.91;7363561;19;20419;-40
2023/10/10 11:58:49;;;;;;;8.67;5.40;;;;;;;16.86;100.00;101644.97;7384727;19;20407;-41
2023/10/10 12:01:49;;;;;;;18.33;8.97;;;;;;;16.90;100.00;101647.66;7360779;19;20836;-39
2023/10/10 12:04:20;;;;;;;12.43;6.33;;;;;;;16.90;100.00;101655.47;7361731;19;20435;-40
2023/10/10 12:06:50;;;;;;;10.03;5.20;;;;;;;16.92;100.00;101666.84;7383582;19;20427;-40
2023/10/10 12:09:22;;;;;;;9.13;4.40;;;;;;;16.98;100.00;101673.09;7361933;19;20435;-42
2023/10/10 12:11:58;;;;;;;11.33;6.30;;;;;;;17.22;100.00;101663.41;7387668;19;20414;-42
2023/10/10 12:14:30;;;;;;;11.47;6.37;;;;;;;17.23;100.00;101686.03;7367855;19;20434;-40
2023/10/10 12:17:05;;;;;;;23.40;11.13;;;;;;;17.27;100.00;101683.56;7389687;19;20431;-43
2023/10/10 12:19:43;;;;;;;7.23;3.40;;;;;;;17.12;100.00;101694.41;7368024;19;20506;-41
2023/10/10 12:22:17;;;;;;;13.13;6.00;;;;;;;17.00;100.00;101694.91;7389121;19;20779;-40
2023/10/10 12:24:50;;;;;;;18.47;8.50;;;;;;;16.96;100.00;101690.44;7368515;19;20447;-43
2023/10/10 12:27:20;;;;;;;20.53;10.47;;;;;;;16.85;100.00;101691.81;7390452;19;20419;-40
2023/10/10 12:29:50;;;;;;;59.80;28.67;;;;;;;16.82;100.00;101676.97;7367716;19;20490;-40
2023/10/10 12:32:22;;;;;;;10.23;5.33;;;;;;;16.86;100.00;101671.03;7389777;19;20408;-39
2023/10/10 12:34:52;;;;;;;7.57;3.70;;;;;;;16.91;100.00;101663.34;7368555;19;20415;-41
2023/10/10 12:37:23;;;;;;;22.47;11.30;;;;;;;16.95;100.00;101652.19;7393053;19;20414;-40
2023/10/10 12:39:55;;;;;;;18.03;9.20;;;;;;;16.94;100.00;101660.84;7366518;19;20996;-42
2023/10/10 12:42:25;;;;;;;32.37;17.30;;;;;;;17.07;100.00;101654.28;7390142;19;20407;-40
2023/10/10 12:44:54;;;;;;;8.80;3.93;;;;;;;17.07;100.00;101641.25;7367878;19;20912;-40
2023/10/10 12:47:26;;;;;;;12.00;6.63;;;;;;;16.97;100.00;101639.19;7390284;19;20403;-41
2023/10/10 12:50:00;;;;;;;7.80;3.80;;;;;;;16.95;100.00;101631.34;7367694;19;20414;-40
2023/10/10 12:52:35;;;;;;;7.10;3.23;;;;;;;17.03;100.00;101626.38;7392022;19;20421;-40
2023/10/10 12:55:09;;;;;;;5.93;3.27;;;;;;;17.10;100.00;101610.06;7366869;19;21064;-40
2023/10/10 12:57:39;;;;;;;17.30;8.23;;;;;;;17.40;100.00;101606.53;7389862;19;20943;-40
2023/10/10 13:02:53;;;;;;;30.83;14.87;;;;;;;17.41;100.00;101631.78;7388557;19;20400;-40
2023/10/10 13:05:27;;;;;;;4.50;2.63;;;;;;;17.57;100.00;101626.97;7366084;19;20998;-40
2023/10/10 13:07:59;;;;;;;8.43;4.27;;;;;;;17.50;100.00;101627.66;7391584;19;20398;-41
2023/10/10 13:10:37;;;;;;;15.40;7.50;;;;;;;17.51;100.00;101626.81;7367733;19;20993;-41
2023/10/10 13:13:07;;;;;;;16.40;8.37;;;;;;;17.31;100.00;101629.75;7388278;19;20391;-41
2023/10/10 13:15:50;;;;;;;13.97;7.07;;;;;;;17.24;100.00;101622.59;7365723;19;20443;-42
2023/10/10 13:18:24;;;;;;;12.87;4.50;;;;;;;17.20;100.00;101613.81;7389554;19;20411;-40
2023/10/10 13:20:54;;;;;;;13.03;6.03;;;;;;;17.29;100.00;101618.41;7364821;19;20423;-44
2023/10/10 13:23:24;;;;;;;21.83;10.03;;;;;;;17.23;100.00;101620.84;7389290;19;20395;-40
2023/10/10 13:25:56;;;;;;;18.93;10.00;;;;;;;17.22;100.00;101611.25;7367895;19;20451;-41
2023/10/10 13:28:26;;;;;;;6.80;3.67;;;;;;;17.20;100.00;101599.88;7388730;19;21286;-41
2023/10/10 13:30:57;;;;;;;7.60;3.67;;;;;;;17.22;100.00;101570.41;7366533;19;20765;-41
2023/10/10 13:33:27;;;;;;;8.27;5.00;;;;;;;17.11;100.00;101559.69;7389227;19;20407;-40
2023/10/10 13:35:57;;;;;;;15.93;9.07;;;;;;;17.02;100.00;101559.41;7365952;19;20432;-41
2023/10/10 13:38:27;;;;;;;13.47;7.50;;;;;;;16.99;100.00;101531.50;7391105;19;20459;-40
2023/10/10 13:41:02;;;;;;;38.70;19.43;;;;;;;16.99;100.00;101520.22;7364720;19;20447;-41
2023/10/10 13:43:32;;;;;;;9.47;5.00;;;;;;;16.97;100.00;101501.94;7389408;19;20434;-41
2023/10/10 13:46:03;;;;;;;8.10;4.70;;;;;;;16.93;100.00;101483.56;7367282;19;20443;-42
2023/10/10 13:48:36;;;;;;;11.47;4.90;;;;;;;16.87;100.00;101486.91;7388996;19;20407;-41
2023/10/10 13:51:07;;;;;;;9.20;4.63;;;;;;;16.85;100.00;101480.75;7365989;19;20455;-43
2023/10/10 13:53:39;;;;;;;9.70;5.60;;;;;;;16.79;100.00;101475.38;7388094;19;20431;-42
2023/10/10 13:56:13;;;;;;;20.00;11.50;;;;;;;16.78;100.00;101457.97;7366493;19;20447;-42
2023/10/10 13:58:46;;;;;;;9.47;5.50;;;;;;;16.70;100.00;101450.84;7388231;19;20411;-41
2023/10/10 14:01:18;;;;;;;13.90;6.60;;;;;;;16.67;100.00;101460.28;7364025;19;20501;-41